sensor_id;sensor_type;location;lat;lon;timestamp;P1;durP1;ratioP1;P2;durP2;ratioP2
8462;SDS011;4268;52.506;13.462;2023-07-13T00:00:44;3.53;;;3.33;;
8462;SDS011;4268;52.506;13.462;2023-07-13T00:03:10;3.43;;;3.20;;
8462;SDS011;4268;52.506;13.462;2023-07-13T00:05:38;3.83;;;3.20;;
8462;SDS011;4268;52.506;13.462;2023-07-13T00:08:04;3.80;;;3.50;;
8462;SDS011;4268;52.506;13.462;2023-07-13T00:10:30;3.40;;;3.20;;
8462;SDS011;4268;52.506;13.462;2023-07-13T00:12:56;4.00;;;3.60;;
8462;SDS011;4268;52.506;13.462;2023-07-13T00:15:23;5.67;;;3.90;;
8462;SDS011;4268;52.506;13.462;2023-07-13T00:17:50;3.87;;;3.43;;
8462;SDS011;4268;52.506;13.462;2023-07-13T00:20:17;3.53;;;3.23;;
8462;SDS011;4268;52.506;13.462;2023-07-13T00:22:43;3.80;;;3.50;;
8462;SDS011;4268;52.506;13.462;2023-07-13T00:25:11;3.97;;;3.57;;
8462;SDS011;4268;52.506;13.462;2023-07-13T00:27:37;3.57;;;3.27;;
8462;SDS011;4268;52.506;13.462;2023-07-13T00:30:03;3.60;;;3.30;;
8462;SDS011;4268;52.506;13.462;2023-07-13T00:32:29;4.00;;;3.70;;
8462;SDS011;4268;52.506;13.462;2023-07-13T00:34:54;4.33;;;3.70;;
8462;SDS011;4268;52.506;13.462;2023-07-13T00:37:20;3.50;;;3.30;;
8462;SDS011;4268;52.506;13.462;2023-07-13T00:39:46;3.83;;;3.53;;
8462;SDS011;4268;52.506;13.462;2023-07-13T00:42:11;3.43;;;3.10;;
8462;SDS011;4268;52.506;13.462;2023-07-13T00:44:37;3.60;;;3.30;;
8462;SDS011;4268;52.506;13.462;2023-07-13T00:47:04;3.50;;;3.20;;
8462;SDS011;4268;52.506;13.462;2023-07-13T00:49:31;3.80;;;3.50;;
8462;SDS011;4268;52.506;13.462;2023-07-13T00:51:59;3.53;;;3.23;;
8462;SDS011;4268;52.506;13.462;2023-07-13T00:54:32;3.60;;;3.30;;
8462;SDS011;4268;52.506;13.462;2023-07-13T00:57:06;3.60;;;3.30;;
8462;SDS011;4268;52.506;13.462;2023-07-13T00:59:34;3.40;;;3.20;;
8462;SDS011;4268;52.506;13.462;2023-07-13T01:02:02;3.17;;;2.97;;
8462;SDS011;4268;52.506;13.462;2023-07-13T01:04:28;3.20;;;3.00;;
8462;SDS011;4268;52.506;13.462;2023-07-13T01:06:54;4.90;;;3.50;;
8462;SDS011;4268;52.506;13.462;2023-07-13T01:09:21;3.30;;;3.00;;
8462;SDS011;4268;52.506;13.462;2023-07-13T01:11:47;3.67;;;3.37;;
8462;SDS011;4268;52.506;13.462;2023-07-13T01:14:13;3.50;;;3.20;;
8462;SDS011;4268;52.506;13.462;2023-07-13T01:16:39;3.70;;;3.03;;
8462;SDS011;4268;52.506;13.462;2023-07-13T01:19:19;3.40;;;3.10;;
8462;SDS011;4268;52.506;13.462;2023-07-13T01:22:01;3.70;;;3.40;;
8462;SDS011;4268;52.506;13.462;2023-07-13T01:24:27;3.57;;;3.27;;
8462;SDS011;4268;52.506;13.462;2023-07-13T01:26:53;4.73;;;4.33;;
8462;SDS011;4268;52.506;13.462;2023-07-13T01:29:19;3.47;;;3.17;;
8462;SDS011;4268;52.506;13.462;2023-07-13T01:31:45;3.53;;;3.23;;
8462;SDS011;4268;52.506;13.462;2023-07-13T01:34:10;3.53;;;3.23;;
8462;SDS011;4268;52.506;13.462;2023-07-13T01:36:36;3.10;;;2.90;;
8462;SDS011;4268;52.506;13.462;2023-07-13T01:39:02;3.50;;;3.20;;
8462;SDS011;4268;52.506;13.462;2023-07-13T01:41:27;3.07;;;2.87;;
8462;SDS011;4268;52.506;13.462;2023-07-13T01:43:53;3.20;;;3.00;;
8462;SDS011;4268;52.506;13.462;2023-07-13T01:46:18;3.10;;;2.90;;
8462;SDS011;4268;52.506;13.462;2023-07-13T01:48:44;3.47;;;2.93;;
8462;SDS011;4268;52.506;13.462;2023-07-13T01:51:09;3.30;;;3.00;;
8462;SDS011;4268;52.506;13.462;2023-07-13T01:53:35;3.50;;;3.30;;
8462;SDS011;4268;52.506;13.462;2023-07-13T01:56:01;3.97;;;3.60;;
8462;SDS011;4268;52.506;13.462;2023-07-13T01:58:27;3.60;;;3.30;;
8462;SDS011;4268;52.506;13.462;2023-07-13T02:00:52;3.30;;;3.00;;
8462;SDS011;4268;52.506;13.462;2023-07-13T02:03:18;3.43;;;3.20;;
8462;SDS011;4268;52.506;13.462;2023-07-13T02:05:45;3.67;;;3.37;;
8462;SDS011;4268;52.506;13.462;2023-07-13T02:08:10;3.33;;;3.13;;
8462;SDS011;4268;52.506;13.462;2023-07-13T02:10:36;3.37;;;3.07;;
8462;SDS011;4268;52.506;13.462;2023-07-13T02:13:03;3.60;;;3.30;;
8462;SDS011;4268;52.506;13.462;2023-07-13T02:15:31;3.33;;;3.10;;
8462;SDS011;4268;52.506;13.462;2023-07-13T02:17:56;2.93;;;2.73;;
8462;SDS011;4268;52.506;13.462;2023-07-13T02:20:23;3.00;;;2.80;;
8462;SDS011;4268;52.506;13.462;2023-07-13T02:22:49;3.07;;;2.87;;
8462;SDS011;4268;52.506;13.462;2023-07-13T02:25:15;3.40;;;3.10;;
8462;SDS011;4268;52.506;13.462;2023-07-13T02:27:40;3.63;;;3.30;;
8462;SDS011;4268;52.506;13.462;2023-07-13T02:30:06;3.00;;;2.80;;
8462;SDS011;4268;52.506;13.462;2023-07-13T02:32:32;3.17;;;2.90;;
8462;SDS011;4268;52.506;13.462;2023-07-13T02:34:58;3.27;;;3.07;;
8462;SDS011;4268;52.506;13.462;2023-07-13T02:37:24;3.50;;;3.20;;
8462;SDS011;4268;52.506;13.462;2023-07-13T02:39:50;3.20;;;3.00;;
8462;SDS011;4268;52.506;13.462;2023-07-13T02:42:15;3.40;;;3.10;;
8462;SDS011;4268;52.506;13.462;2023-07-13T02:44:41;3.80;;;3.50;;
8462;SDS011;4268;52.506;13.462;2023-07-13T02:47:06;4.20;;;3.40;;
8462;SDS011;4268;52.506;13.462;2023-07-13T02:49:32;3.43;;;3.20;;
8462;SDS011;4268;52.506;13.462;2023-07-13T02:51:57;4.40;;;3.80;;
8462;SDS011;4268;52.506;13.462;2023-07-13T02:54:23;5.67;;;3.70;;
8462;SDS011;4268;52.506;13.462;2023-07-13T02:56:48;5.03;;;3.70;;
8462;SDS011;4268;52.506;13.462;2023-07-13T02:59:14;3.50;;;3.20;;
8462;SDS011;4268;52.506;13.462;2023-07-13T03:01:40;3.90;;;3.57;;
8462;SDS011;4268;52.506;13.462;2023-07-13T03:04:06;3.43;;;3.13;;
8462;SDS011;4268;52.506;13.462;2023-07-13T03:06:32;3.23;;;3.00;;
8462;SDS011;4268;52.506;13.462;2023-07-13T03:08:58;3.73;;;3.43;;
8462;SDS011;4268;52.506;13.462;2023-07-13T03:11:25;4.00;;;3.60;;
8462;SDS011;4268;52.506;13.462;2023-07-13T03:13:51;3.20;;;3.00;;
8462;SDS011;4268;52.506;13.462;2023-07-13T03:16:17;3.63;;;3.30;;
8462;SDS011;4268;52.506;13.462;2023-07-13T03:18:43;3.90;;;3.60;;
8462;SDS011;4268;52.506;13.462;2023-07-13T03:21:09;3.87;;;3.57;;
8462;SDS011;4268;52.506;13.462;2023-07-13T03:23:35;3.73;;;3.30;;
8462;SDS011;4268;52.506;13.462;2023-07-13T03:26:01;3.80;;;3.50;;
8462;SDS011;4268;52.506;13.462;2023-07-13T03:28:29;3.77;;;3.53;;
8462;SDS011;4268;52.506;13.462;2023-07-13T03:31:09;3.50;;;3.20;;
8462;SDS011;4268;52.506;13.462;2023-07-13T03:33:37;3.70;;;3.40;;
8462;SDS011;4268;52.506;13.462;2023-07-13T03:36:03;3.73;;;3.43;;
8462;SDS011;4268;52.506;13.462;2023-07-13T03:38:30;3.70;;;3.47;;
8462;SDS011;4268;52.506;13.462;2023-07-13T03:40:56;3.93;;;3.60;;
8462;SDS011;4268;52.506;13.462;2023-07-13T03:43:21;4.00;;;3.67;;
8462;SDS011;4268;52.506;13.462;2023-07-13T03:45:47;3.87;;;3.47;;
8462;SDS011;4268;52.506;13.462;2023-07-13T03:48:12;3.97;;;3.60;;
8462;SDS011;4268;52.506;13.462;2023-07-13T03:50:38;3.50;;;3.20;;
8462;SDS011;4268;52.506;13.462;2023-07-13T03:53:04;3.70;;;3.40;;
8462;SDS011;4268;52.506;13.462;2023-07-13T03:55:30;3.73;;;3.47;;
8462;SDS011;4268;52.506;13.462;2023-07-13T04:01:00;3.70;;;3.40;;
8462;SDS011;4268;52.506;13.462;2023-07-13T04:03:27;4.07;;;3.77;;
8462;SDS011;4268;52.506;13.462;2023-07-13T04:05:56;3.60;;;3.30;;
8462;SDS011;4268;52.506;13.462;2023-07-13T04:08:25;3.97;;;3.50;;
8462;SDS011;4268;52.506;13.462;2023-07-13T04:10:55;3.97;;;3.50;;
8462;SDS011;4268;52.506;13.462;2023-07-13T04:13:21;3.30;;;3.10;;
8462;SDS011;4268;52.506;13.462;2023-07-13T04:15:46;3.90;;;3.60;;
8462;SDS011;4268;52.506;13.462;2023-07-13T04:18:12;3.70;;;3.40;;
8462;SDS011;4268;52.506;13.462;2023-07-13T04:20:37;3.60;;;3.40;;
8462;SDS011;4268;52.506;13.462;2023-07-13T04:23:03;3.50;;;3.30;;
8462;SDS011;4268;52.506;13.462;2023-07-13T04:25:29;3.70;;;3.10;;
8462;SDS011;4268;52.506;13.462;2023-07-13T04:27:54;3.50;;;3.30;;
8462;SDS011;4268;52.506;13.462;2023-07-13T04:30:21;3.40;;;3.20;;
8462;SDS011;4268;52.506;13.462;2023-07-13T04:32:47;3.80;;;3.50;;
8462;SDS011;4268;52.506;13.462;2023-07-13T04:35:14;3.70;;;3.40;;
8462;SDS011;4268;52.506;13.462;2023-07-13T04:37:40;3.43;;;3.20;;
8462;SDS011;4268;52.506;13.462;2023-07-13T04:40:06;3.30;;;3.10;;
8462;SDS011;4268;52.506;13.462;2023-07-13T04:42:36;3.90;;;3.50;;
8462;SDS011;4268;52.506;13.462;2023-07-13T04:45:02;3.93;;;3.37;;
8462;SDS011;4268;52.506;13.462;2023-07-13T04:47:29;3.30;;;3.10;;
8462;SDS011;4268;52.506;13.462;2023-07-13T04:49:55;3.10;;;2.90;;
8462;SDS011;4268;52.506;13.462;2023-07-13T04:52:21;3.50;;;3.20;;
8462;SDS011;4268;52.506;13.462;2023-07-13T04:54:47;3.30;;;3.10;;
8462;SDS011;4268;52.506;13.462;2023-07-13T04:57:14;3.37;;;3.13;;
8462;SDS011;4268;52.506;13.462;2023-07-13T04:59:39;3.30;;;3.10;;
8462;SDS011;4268;52.506;13.462;2023-07-13T05:02:06;3.40;;;3.10;;
8462;SDS011;4268;52.506;13.462;2023-07-13T05:04:32;3.33;;;3.13;;
8462;SDS011;4268;52.506;13.462;2023-07-13T05:06:58;3.37;;;3.10;;
8462;SDS011;4268;52.506;13.462;2023-07-13T05:09:24;4.77;;;3.20;;
8462;SDS011;4268;52.506;13.462;2023-07-13T05:11:49;3.47;;;3.23;;
8462;SDS011;4268;52.506;13.462;2023-07-13T05:14:18;3.80;;;3.50;;
8462;SDS011;4268;52.506;13.462;2023-07-13T05:16:47;3.30;;;3.10;;
8462;SDS011;4268;52.506;13.462;2023-07-13T05:19:12;3.83;;;3.10;;
8462;SDS011;4268;52.506;13.462;2023-07-13T05:21:38;3.90;;;3.60;;
8462;SDS011;4268;52.506;13.462;2023-07-13T05:24:03;3.70;;;3.40;;
8462;SDS011;4268;52.506;13.462;2023-07-13T05:26:29;3.60;;;3.30;;
8462;SDS011;4268;52.506;13.462;2023-07-13T05:28:54;3.23;;;3.03;;
8462;SDS011;4268;52.506;13.462;2023-07-13T05:31:20;3.33;;;3.10;;
8462;SDS011;4268;52.506;13.462;2023-07-13T05:33:48;3.50;;;3.30;;
8462;SDS011;4268;52.506;13.462;2023-07-13T05:36:13;3.50;;;3.10;;
8462;SDS011;4268;52.506;13.462;2023-07-13T05:38:44;3.30;;;3.00;;
8462;SDS011;4268;52.506;13.462;2023-07-13T05:41:10;3.20;;;3.00;;
8462;SDS011;4268;52.506;13.462;2023-07-13T05:43:41;3.23;;;3.03;;
8462;SDS011;4268;52.506;13.462;2023-07-13T05:46:07;3.07;;;2.87;;
8462;SDS011;4268;52.506;13.462;2023-07-13T05:48:32;3.87;;;3.57;;
8462;SDS011;4268;52.506;13.462;2023-07-13T05:50:58;3.50;;;3.23;;
8462;SDS011;4268;52.506;13.462;2023-07-13T05:53:23;3.23;;;2.93;;
8462;SDS011;4268;52.506;13.462;2023-07-13T05:55:48;3.20;;;2.93;;
8462;SDS011;4268;52.506;13.462;2023-07-13T05:58:19;4.90;;;3.37;;
8462;SDS011;4268;52.506;13.462;2023-07-13T06:00:45;3.57;;;3.27;;
8462;SDS011;4268;52.506;13.462;2023-07-13T06:03:12;3.50;;;3.20;;
8462;SDS011;4268;52.506;13.462;2023-07-13T06:05:41;3.20;;;2.90;;
8462;SDS011;4268;52.506;13.462;2023-07-13T06:08:09;3.13;;;2.90;;
8462;SDS011;4268;52.506;13.462;2023-07-13T06:10:35;4.63;;;3.30;;
8462;SDS011;4268;52.506;13.462;2023-07-13T06:13:01;4.50;;;3.60;;
8462;SDS011;4268;52.506;13.462;2023-07-13T06:15:26;3.72;;;3.42;;
8462;SDS011;4268;52.506;13.462;2023-07-13T06:17:52;4.50;;;3.53;;
8462;SDS011;4268;52.506;13.462;2023-07-13T06:20:18;4.03;;;3.45;;
8462;SDS011;4268;52.506;13.462;2023-07-13T06:22:43;3.60;;;3.28;;
8462;SDS011;4268;52.506;13.462;2023-07-13T06:25:09;3.55;;;2.70;;
8462;SDS011;4268;52.506;13.462;2023-07-13T06:27:34;3.30;;;3.00;;
8462;SDS011;4268;52.506;13.462;2023-07-13T06:30:00;3.30;;;3.10;;
8462;SDS011;4268;52.506;13.462;2023-07-13T06:32:25;5.00;;;4.00;;
8462;SDS011;4268;52.506;13.462;2023-07-13T06:34:51;8.68;;;4.03;;
8462;SDS011;4268;52.506;13.462;2023-07-13T06:37:17;6.35;;;3.20;;
8462;SDS011;4268;52.506;13.462;2023-07-13T06:39:43;3.47;;;2.88;;
8462;SDS011;4268;52.506;13.462;2023-07-13T06:42:08;3.65;;;3.03;;
8462;SDS011;4268;52.506;13.462;2023-07-13T06:44:34;3.10;;;2.70;;
8462;SDS011;4268;52.506;13.462;2023-07-13T06:46:59;3.20;;;2.90;;
8462;SDS011;4268;52.506;13.462;2023-07-13T06:49:25;4.65;;;2.80;;
8462;SDS011;4268;52.506;13.462;2023-07-13T06:51:50;3.35;;;2.60;;
8462;SDS011;4268;52.506;13.462;2023-07-13T06:54:16;2.83;;;2.60;;
8462;SDS011;4268;52.506;13.462;2023-07-13T06:56:42;3.28;;;2.53;;
8462;SDS011;4268;52.506;13.462;2023-07-13T06:59:07;3.20;;;2.50;;
8462;SDS011;4268;52.506;13.462;2023-07-13T07:01:33;2.88;;;2.20;;
8462;SDS011;4268;52.506;13.462;2023-07-13T07:03:58;2.88;;;2.67;;
8462;SDS011;4268;52.506;13.462;2023-07-13T07:06:24;3.00;;;2.50;;
8462;SDS011;4268;52.506;13.462;2023-07-13T07:08:50;3.92;;;2.55;;
8462;SDS011;4268;52.506;13.462;2023-07-13T07:11:18;2.20;;;2.10;;
8462;SDS011;4268;52.506;13.462;2023-07-13T07:13:45;2.40;;;2.30;;
8462;SDS011;4268;52.506;13.462;2023-07-13T07:16:11;3.00;;;2.50;;
8462;SDS011;4268;52.506;13.462;2023-07-13T07:18:36;3.00;;;2.80;;
8462;SDS011;4268;52.506;13.462;2023-07-13T07:21:02;3.47;;;3.28;;
8462;SDS011;4268;52.506;13.462;2023-07-13T07:23:28;2.35;;;2.15;;
8462;SDS011;4268;52.506;13.462;2023-07-13T07:25:53;2.80;;;2.60;;
8462;SDS011;4268;52.506;13.462;2023-07-13T07:28:19;3.00;;;2.70;;
8462;SDS011;4268;52.506;13.462;2023-07-13T07:30:45;2.90;;;2.60;;
8462;SDS011;4268;52.506;13.462;2023-07-13T07:33:11;3.50;;;2.47;;
8462;SDS011;4268;52.506;13.462;2023-07-13T07:35:37;3.03;;;2.72;;
8462;SDS011;4268;52.506;13.462;2023-07-13T07:38:03;2.47;;;2.30;;
8462;SDS011;4268;52.506;13.462;2023-07-13T07:40:29;2.63;;;2.20;;
8462;SDS011;4268;52.506;13.462;2023-07-13T07:42:54;2.28;;;1.90;;
8462;SDS011;4268;52.506;13.462;2023-07-13T07:45:20;2.45;;;2.30;;
8462;SDS011;4268;52.506;13.462;2023-07-13T07:47:46;1.95;;;1.85;;
8462;SDS011;4268;52.506;13.462;2023-07-13T07:50:11;2.47;;;2.22;;
8462;SDS011;4268;52.506;13.462;2023-07-13T07:52:38;3.42;;;2.40;;
8462;SDS011;4268;52.506;13.462;2023-07-13T07:55:04;3.33;;;2.10;;
8462;SDS011;4268;52.506;13.462;2023-07-13T07:57:31;2.47;;;2.35;;
8462;SDS011;4268;52.506;13.462;2023-07-13T07:59:57;2.10;;;2.00;;
8462;SDS011;4268;52.506;13.462;2023-07-13T08:02:22;2.85;;;2.30;;
8462;SDS011;4268;52.506;13.462;2023-07-13T08:04:49;2.95;;;2.05;;
8462;SDS011;4268;52.506;13.462;2023-07-13T08:07:14;2.40;;;2.20;;
8462;SDS011;4268;52.506;13.462;2023-07-13T08:09:40;3.42;;;1.92;;
8462;SDS011;4268;52.506;13.462;2023-07-13T08:12:06;2.03;;;1.88;;
8462;SDS011;4268;52.506;13.462;2023-07-13T08:14:32;3.53;;;2.17;;
8462;SDS011;4268;52.506;13.462;2023-07-13T08:16:57;2.50;;;2.30;;
8462;SDS011;4268;52.506;13.462;2023-07-13T08:19:23;2.90;;;2.70;;
8462;SDS011;4268;52.506;13.462;2023-07-13T08:21:48;2.80;;;2.60;;
8462;SDS011;4268;52.506;13.462;2023-07-13T08:24:14;2.90;;;2.80;;
8462;SDS011;4268;52.506;13.462;2023-07-13T08:26:40;6.88;;;2.78;;
8462;SDS011;4268;52.506;13.462;2023-07-13T08:29:06;2.90;;;2.70;;
8462;SDS011;4268;52.506;13.462;2023-07-13T08:31:31;2.60;;;2.40;;
8462;SDS011;4268;52.506;13.462;2023-07-13T08:33:57;2.90;;;2.70;;
8462;SDS011;4268;52.506;13.462;2023-07-13T08:36:22;3.35;;;2.85;;
8462;SDS011;4268;52.506;13.462;2023-07-13T08:38:48;3.60;;;3.00;;
8462;SDS011;4268;52.506;13.462;2023-07-13T08:41:14;2.92;;;2.80;;
8462;SDS011;4268;52.506;13.462;2023-07-13T08:43:42;3.00;;;2.80;;
8462;SDS011;4268;52.506;13.462;2023-07-13T08:46:15;3.30;;;3.10;;
8462;SDS011;4268;52.506;13.462;2023-07-13T08:48:58;3.10;;;2.90;;
8462;SDS011;4268;52.506;13.462;2023-07-13T08:51:41;2.80;;;2.70;;
8462;SDS011;4268;52.506;13.462;2023-07-13T08:54:22;3.67;;;3.20;;
8462;SDS011;4268;52.506;13.462;2023-07-13T08:57:12;3.42;;;3.22;;
8462;SDS011;4268;52.506;13.462;2023-07-13T08:59:40;3.38;;;3.17;;
8462;SDS011;4268;52.506;13.462;2023-07-13T09:03:12;3.63;;;3.42;;
8462;SDS011;4268;52.506;13.462;2023-07-13T09:05:15;3.38;;;3.08;;
8462;SDS011;4268;52.506;13.462;2023-07-13T09:10:48;3.60;;;2.90;;
8462;SDS011;4268;52.506;13.462;2023-07-13T09:13:20;2.85;;;2.60;;
8462;SDS011;4268;52.506;13.462;2023-07-13T09:15:51;2.88;;;2.67;;
8462;SDS011;4268;52.506;13.462;2023-07-13T09:18:26;3.83;;;2.80;;
8462;SDS011;4268;52.506;13.462;2023-07-13T09:21:04;2.78;;;2.58;;
8462;SDS011;4268;52.506;13.462;2023-07-13T09:23:37;3.08;;;2.80;;
8462;SDS011;4268;52.506;13.462;2023-07-13T09:26:04;3.28;;;2.30;;
8462;SDS011;4268;52.506;13.462;2023-07-13T09:28:35;2.60;;;2.40;;
8462;SDS011;4268;52.506;13.462;2023-07-13T09:31:06;2.97;;;2.78;;
8462;SDS011;4268;52.506;13.462;2023-07-13T09:33:37;2.80;;;2.70;;
8462;SDS011;4268;52.506;13.462;2023-07-13T09:36:17;2.75;;;2.60;;
8462;SDS011;4268;52.506;13.462;2023-07-13T09:38:45;3.40;;;3.10;;
8462;SDS011;4268;52.506;13.462;2023-07-13T09:44:18;2.80;;;2.70;;
8462;SDS011;4268;52.506;13.462;2023-07-13T09:46:56;3.35;;;3.15;;
8462;SDS011;4268;52.506;13.462;2023-07-13T09:49:35;3.20;;;3.00;;
8462;SDS011;4268;52.506;13.462;2023-07-13T09:52:04;3.38;;;3.17;;
8462;SDS011;4268;52.506;13.462;2023-07-13T09:54:35;3.70;;;3.50;;
8462;SDS011;4268;52.506;13.462;2023-07-13T09:57:02;4.13;;;3.60;;
8462;SDS011;4268;52.506;13.462;2023-07-13T09:59:40;3.50;;;3.25;;
8462;SDS011;4268;52.506;13.462;2023-07-13T10:02:22;3.25;;;3.05;;
8462;SDS011;4268;52.506;13.462;2023-07-13T10:04:55;3.65;;;3.45;;
8462;SDS011;4268;52.506;13.462;2023-07-13T10:07:23;4.03;;;3.65;;
8462;SDS011;4268;52.506;13.462;2023-07-13T10:09:52;3.55;;;3.35;;
8462;SDS011;4268;52.506;13.462;2023-07-13T10:12:19;3.83;;;3.53;;
8462;SDS011;4268;52.506;13.462;2023-07-13T10:14:45;3.72;;;3.53;;
8462;SDS011;4268;52.506;13.462;2023-07-13T10:17:13;4.20;;;3.85;;
8462;SDS011;4268;52.506;13.462;2023-07-13T10:19:39;3.70;;;3.50;;
8462;SDS011;4268;52.506;13.462;2023-07-13T10:22:16;3.72;;;3.53;;
8462;SDS011;4268;52.506;13.462;2023-07-13T10:25:00;4.07;;;3.78;;
8462;SDS011;4268;52.506;13.462;2023-07-13T10:27:35;4.10;;;3.80;;
8462;SDS011;4268;52.506;13.462;2023-07-13T10:32:45;4.45;;;4.05;;
8462;SDS011;4268;52.506;13.462;2023-07-13T10:35:12;4.00;;;3.60;;
8462;SDS011;4268;52.506;13.462;2023-07-13T10:37:49;4.70;;;3.85;;
8462;SDS011;4268;52.506;13.462;2023-07-13T10:40:23;3.65;;;3.45;;
8462;SDS011;4268;52.506;13.462;2023-07-13T10:42:55;3.90;;;3.60;;
8462;SDS011;4268;52.506;13.462;2023-07-13T10:45:24;4.35;;;3.40;;
8462;SDS011;4268;52.506;13.462;2023-07-13T10:47:53;4.03;;;3.33;;
8462;SDS011;4268;52.506;13.462;2023-07-13T10:50:22;4.18;;;3.80;;
8462;SDS011;4268;52.506;13.462;2023-07-13T10:53:01;3.30;;;3.10;;
8462;SDS011;4268;52.506;13.462;2023-07-13T10:55:32;3.92;;;3.63;;
8462;SDS011;4268;52.506;13.462;2023-07-13T10:58:10;4.05;;;3.75;;
8462;SDS011;4268;52.506;13.462;2023-07-13T11:01:02;7.47;;;3.85;;
8462;SDS011;4268;52.506;13.462;2023-07-13T11:03:33;3.70;;;3.50;;
8462;SDS011;4268;52.506;13.462;2023-07-13T11:06:12;3.90;;;3.60;;
8462;SDS011;4268;52.506;13.462;2023-07-13T11:08:59;3.58;;;3.38;;
8462;SDS011;4268;52.506;13.462;2023-07-13T11:11:43;3.72;;;3.42;;
8462;SDS011;4268;52.506;13.462;2023-07-13T11:22:41;4.20;;;3.03;;
8462;SDS011;4268;52.506;13.462;2023-07-13T11:28:03;3.45;;;3.20;;
8462;SDS011;4268;52.506;13.462;2023-07-13T11:30:36;3.50;;;3.20;;
8462;SDS011;4268;52.506;13.462;2023-07-13T11:35:44;3.25;;;3.05;;
8462;SDS011;4268;52.506;13.462;2023-07-13T11:38:16;3.47;;;3.28;;
8462;SDS011;4268;52.506;13.462;2023-07-13T11:40:45;3.38;;;3.17;;
8462;SDS011;4268;52.506;13.462;2023-07-13T11:43:13;3.40;;;3.20;;
8462;SDS011;4268;52.506;13.462;2023-07-13T11:45:40;3.35;;;3.15;;
8462;SDS011;4268;52.506;13.462;2023-07-13T11:48:20;3.35;;;3.05;;
8462;SDS011;4268;52.506;13.462;2023-07-13T11:51:03;3.10;;;2.83;;
8462;SDS011;4268;52.506;13.462;2023-07-13T11:53:32;2.97;;;2.83;;
8462;SDS011;4268;52.506;13.462;2023-07-13T11:56:11;3.47;;;3.20;;
8462;SDS011;4268;52.506;13.462;2023-07-13T11:58:38;3.30;;;3.10;;
8462;SDS011;4268;52.506;13.462;2023-07-13T12:01:04;2.97;;;2.78;;
8462;SDS011;4268;52.506;13.462;2023-07-13T12:03:30;3.20;;;3.00;;
8462;SDS011;4268;52.506;13.462;2023-07-13T12:06:02;3.50;;;3.30;;
8462;SDS011;4268;52.506;13.462;2023-07-13T12:08:31;3.22;;;2.95;;
8462;SDS011;4268;52.506;13.462;2023-07-13T12:11:03;3.05;;;2.83;;
8462;SDS011;4268;52.506;13.462;2023-07-13T12:13:34;6.55;;;3.10;;
8462;SDS011;4268;52.506;13.462;2023-07-13T12:16:01;2.75;;;2.53;;
8462;SDS011;4268;52.506;13.462;2023-07-13T12:18:30;3.30;;;3.10;;
8462;SDS011;4268;52.506;13.462;2023-07-13T12:20:57;4.38;;;3.00;;
8462;SDS011;4268;52.506;13.462;2023-07-13T12:23:26;3.15;;;2.85;;
8462;SDS011;4268;52.506;13.462;2023-07-13T12:25:56;2.67;;;2.53;;
8462;SDS011;4268;52.506;13.462;2023-07-13T12:28:30;5.03;;;4.63;;
8462;SDS011;4268;52.506;13.462;2023-07-13T12:30:59;3.10;;;2.90;;
8462;SDS011;4268;52.506;13.462;2023-07-13T12:33:30;3.13;;;2.83;;
8462;SDS011;4268;52.506;13.462;2023-07-13T12:35:58;3.42;;;3.20;;
8462;SDS011;4268;52.506;13.462;2023-07-13T12:38:27;3.28;;;3.08;;
8462;SDS011;4268;52.506;13.462;2023-07-13T12:40:53;3.78;;;3.00;;
8462;SDS011;4268;52.506;13.462;2023-07-13T12:43:22;3.20;;;3.00;;
8462;SDS011;4268;52.506;13.462;2023-07-13T12:48:28;3.40;;;3.08;;
8462;SDS011;4268;52.506;13.462;2023-07-13T12:50:54;2.97;;;2.78;;
8462;SDS011;4268;52.506;13.462;2023-07-13T12:53:28;3.25;;;2.60;;
8462;SDS011;4268;52.506;13.462;2023-07-13T12:55:56;2.92;;;2.60;;
8462;SDS011;4268;52.506;13.462;2023-07-13T12:58:27;2.88;;;2.67;;
8462;SDS011;4268;52.506;13.462;2023-07-13T13:01:01;2.72;;;2.53;;
8462;SDS011;4268;52.506;13.462;2023-07-13T13:03:44;2.60;;;2.40;;
8462;SDS011;4268;52.506;13.462;2023-07-13T13:08:43;3.00;;;2.80;;
8462;SDS011;4268;52.506;13.462;2023-07-13T13:11:10;2.80;;;2.60;;
8462;SDS011;4268;52.506;13.462;2023-07-13T13:13:36;3.00;;;2.70;;
8462;SDS011;4268;52.506;13.462;2023-07-13T13:16:04;3.10;;;2.90;;
8462;SDS011;4268;52.506;13.462;2023-07-13T13:18:45;3.22;;;3.03;;
8462;SDS011;4268;52.506;13.462;2023-07-13T13:21:11;3.35;;;3.15;;
8462;SDS011;4268;52.506;13.462;2023-07-13T13:23:36;3.40;;;3.20;;
8462;SDS011;4268;52.506;13.462;2023-07-13T13:26:02;4.70;;;3.60;;
8462;SDS011;4268;52.506;13.462;2023-07-13T13:28:28;3.97;;;3.47;;
8462;SDS011;4268;52.506;13.462;2023-07-13T13:30:54;3.50;;;3.30;;
8462;SDS011;4268;52.506;13.462;2023-07-13T13:33:20;3.50;;;3.30;;
8462;SDS011;4268;52.506;13.462;2023-07-13T13:35:46;3.33;;;3.13;;
8462;SDS011;4268;52.506;13.462;2023-07-13T13:38:13;5.32;;;3.40;;
8462;SDS011;4268;52.506;13.462;2023-07-13T13:40:41;3.30;;;3.00;;
8462;SDS011;4268;52.506;13.462;2023-07-13T13:43:17;3.10;;;2.90;;
8462;SDS011;4268;52.506;13.462;2023-07-13T13:45:51;3.40;;;3.20;;
8462;SDS011;4268;52.506;13.462;2023-07-13T13:48:33;4.07;;;2.88;;
8462;SDS011;4268;52.506;13.462;2023-07-13T13:51:01;3.00;;;2.80;;
8462;SDS011;4268;52.506;13.462;2023-07-13T13:53:36;3.30;;;3.00;;
8462;SDS011;4268;52.506;13.462;2023-07-13T13:56:03;3.97;;;3.30;;
8462;SDS011;4268;52.506;13.462;2023-07-13T13:58:29;3.53;;;3.30;;
8462;SDS011;4268;52.506;13.462;2023-07-13T14:00:55;3.92;;;3.08;;
8462;SDS011;4268;52.506;13.462;2023-07-13T14:03:21;3.30;;;3.10;;
8462;SDS011;4268;52.506;13.462;2023-07-13T14:05:47;3.17;;;2.90;;
8462;SDS011;4268;52.506;13.462;2023-07-13T14:08:14;3.20;;;3.00;;
8462;SDS011;4268;52.506;13.462;2023-07-13T14:10:41;3.42;;;3.13;;
8462;SDS011;4268;52.506;13.462;2023-07-13T14:13:09;3.60;;;3.30;;
8462;SDS011;4268;52.506;13.462;2023-07-13T14:15:43;3.10;;;2.95;;
8462;SDS011;4268;52.506;13.462;2023-07-13T14:18:09;3.25;;;3.00;;
8462;SDS011;4268;52.506;13.462;2023-07-13T14:20:36;3.47;;;3.20;;
8462;SDS011;4268;52.506;13.462;2023-07-13T14:23:02;3.50;;;3.30;;
8462;SDS011;4268;52.506;13.462;2023-07-13T14:25:28;3.53;;;3.20;;
8462;SDS011;4268;52.506;13.462;2023-07-13T14:27:55;2.88;;;2.67;;
8462;SDS011;4268;52.506;13.462;2023-07-13T14:30:23;2.80;;;2.60;;
8462;SDS011;4268;52.506;13.462;2023-07-13T14:32:49;3.13;;;2.60;;
8462;SDS011;4268;52.506;13.462;2023-07-13T14:35:18;3.10;;;2.90;;
8462;SDS011;4268;52.506;13.462;2023-07-13T14:37:46;5.55;;;2.70;;
8462;SDS011;4268;52.506;13.462;2023-07-13T14:42:54;4.03;;;3.20;;
8462;SDS011;4268;52.506;13.462;2023-07-13T14:45:20;3.20;;;2.90;;
8462;SDS011;4268;52.506;13.462;2023-07-13T14:47:46;4.05;;;3.70;;
8462;SDS011;4268;52.506;13.462;2023-07-13T14:50:16;3.30;;;3.03;;
8462;SDS011;4268;52.506;13.462;2023-07-13T14:52:46;4.65;;;3.10;;
8462;SDS011;4268;52.506;13.462;2023-07-13T14:55:16;3.40;;;3.10;;
8462;SDS011;4268;52.506;13.462;2023-07-13T14:57:43;3.72;;;3.50;;
8462;SDS011;4268;52.506;13.462;2023-07-13T15:00:14;4.70;;;3.47;;
8462;SDS011;4268;52.506;13.462;2023-07-13T15:02:41;3.47;;;3.20;;
8462;SDS011;4268;52.506;13.462;2023-07-13T15:05:12;3.30;;;3.10;;
8462;SDS011;4268;52.506;13.462;2023-07-13T15:07:39;3.08;;;2.97;;
8462;SDS011;4268;52.506;13.462;2023-07-13T15:10:17;3.35;;;3.05;;
8462;SDS011;4268;52.506;13.462;2023-07-13T15:12:46;3.55;;;3.35;;
8462;SDS011;4268;52.506;13.462;2023-07-13T15:15:12;3.20;;;3.00;;
8462;SDS011;4268;52.506;13.462;2023-07-13T15:17:39;3.20;;;3.00;;
8462;SDS011;4268;52.506;13.462;2023-07-13T15:20:19;3.00;;;2.88;;
8462;SDS011;4268;52.506;13.462;2023-07-13T15:22:54;3.10;;;2.90;;
8462;SDS011;4268;52.506;13.462;2023-07-13T15:25:21;3.30;;;3.00;;
8462;SDS011;4268;52.506;13.462;2023-07-13T15:27:49;2.90;;;2.70;;
8462;SDS011;4268;52.506;13.462;2023-07-13T15:30:19;3.13;;;2.78;;
8462;SDS011;4268;52.506;13.462;2023-07-13T15:32:46;2.80;;;2.60;;
8462;SDS011;4268;52.506;13.462;2023-07-13T15:35:19;4.53;;;2.63;;
8462;SDS011;4268;52.506;13.462;2023-07-13T15:37:47;2.20;;;2.10;;
8462;SDS011;4268;52.506;13.462;2023-07-13T15:40:13;4.60;;;2.35;;